createdAt,value
2023-11-12T00:01:51.833Z,94620.38
2023-11-12T00:04:23.599Z,94613.56
2023-11-12T00:06:52.145Z,94617.34
2023-11-12T00:09:23.385Z,94607.09
2023-11-12T00:11:51.595Z,94618.91
2023-11-12T00:14:19.755Z,94605.06
2023-11-12T00:16:47.885Z,94609.25
2023-11-12T00:19:21.717Z,94601.84
2023-11-12T00:21:50.958Z,94601.66
2023-11-12T00:24:19.033Z,94595.41
2023-11-12T00:26:49.755Z,94592.78
2023-11-12T00:29:18.449Z,94589.16
2023-11-12T00:31:46.554Z,94586.28
2023-11-12T00:34:14.530Z,94591.75
2023-11-12T00:36:44.173Z,94588.00
2023-11-12T00:39:13.687Z,94599.84
2023-11-12T00:41:41.650Z,94599.38
2023-11-12T00:44:12.011Z,94595.16
2023-11-12T00:46:42.221Z,94599.38
2023-11-12T00:49:10.653Z,94588.69
2023-11-12T00:51:38.614Z,94580.41
2023-11-12T00:54:07.115Z,94580.41
2023-11-12T00:56:36.400Z,94574.59
2023-11-12T00:59:06.325Z,94573.91
2023-11-12T01:01:35.115Z,94574.34
2023-11-12T01:04:03.601Z,94573.44
2023-11-12T01:06:31.771Z,94566.97
2023-11-12T01:08:59.765Z,94563.56
2023-11-12T01:11:27.795Z,94569.31
2023-11-12T01:13:58.590Z,94565.69
2023-11-12T01:16:27.133Z,94563.97
2023-11-12T01:18:55.875Z,94561.91
2023-11-12T01:21:23.872Z,94568.81
2023-11-12T01:23:51.879Z,94568.63
2023-11-12T01:26:20.034Z,94562.66
2023-11-12T01:28:48.134Z,94565.41
2023-11-12T01:31:17.587Z,94569.22
2023-11-12T01:33:45.931Z,94555.47
2023-11-12T01:36:13.909Z,94555.47
2023-11-12T01:38:41.841Z,94546.63
2023-11-12T01:41:10.359Z,94543.34
2023-11-12T01:43:38.325Z,94539.50
2023-11-12T01:46:08.828Z,94538.34
2023-11-12T01:48:38.999Z,94531.66
2023-11-12T01:51:08.356Z,94536.97
2023-11-12T01:53:39.945Z,94525.84
2023-11-12T01:56:13.891Z,94532.81
2023-11-12T01:58:45.229Z,94529.47
2023-11-12T02:01:14.617Z,94522.44
2023-11-12T02:03:44.771Z,94521.66
2023-11-12T02:06:14.065Z,94515.72
2023-11-12T02:08:42.182Z,94518.25
2023-11-12T02:11:13.522Z,94522.91
2023-11-12T02:13:44.317Z,94511.53
2023-11-12T02:16:12.466Z,94501.53
2023-11-12T02:18:45.734Z,94503.75
2023-11-12T02:21:15.201Z,94496.91
2023-11-12T02:23:44.547Z,94494.19
2023-11-12T02:26:13.106Z,94497.72
2023-11-12T02:28:41.023Z,94484.69
2023-11-12T02:31:09.087Z,94489.47
2023-11-12T02:33:39.925Z,94490.81
2023-11-12T02:36:09.846Z,94491.84
2023-11-12T02:38:37.838Z,94491.28
2023-11-12T02:41:09.554Z,94493.97
2023-11-12T02:43:37.558Z,94496.88
2023-11-12T02:46:06.018Z,94494.09
2023-11-12T02:48:59.490Z,94485.69
2023-11-12T02:51:27.778Z,94482.72
2023-11-12T02:53:57.601Z,94491.81
2023-11-12T02:56:29.454Z,94483.59
2023-11-12T02:58:57.440Z,94490.75
2023-11-12T03:01:26.977Z,94497.56
2023-11-12T03:03:55.045Z,94489.94
2023-11-12T03:06:24.181Z,94483.94
2023-11-12T03:08:52.170Z,94483.94
2023-11-12T03:11:20.170Z,94485.16
2023-11-12T03:13:49.728Z,94479.88
2023-11-12T03:16:17.718Z,94467.53
2023-11-12T03:18:47.556Z,94470.88
2023-11-12T03:21:15.572Z,94464.84
2023-11-12T03:23:43.502Z,94464.84
2023-11-12T03:26:11.472Z,94455.88
2023-11-12T03:28:39.826Z,94449.94
2023-11-12T03:31:09.295Z,94447.47
2023-11-12T03:33:37.305Z,94443.63
2023-11-12T03:36:06.277Z,94446.06
2023-11-12T03:38:34.442Z,94436.63
2023-11-12T03:41:02.563Z,94433.44
2023-11-12T03:43:30.551Z,94435.03
2023-11-12T03:45:58.728Z,94437.53
2023-11-12T03:48:28.040Z,94429.75
2023-11-12T03:50:55.980Z,94418.75
2023-11-12T03:53:23.902Z,94417.66
2023-11-12T03:55:51.978Z,94412.53
2023-11-12T03:58:20.388Z,94416.41
2023-11-12T04:00:48.650Z,94407.19
2023-11-12T04:03:18.485Z,94400.41
2023-11-12T04:05:47.879Z,94399.69
2023-11-12T04:08:16.210Z,94398.88
2023-11-12T04:10:44.259Z,94403.31
2023-11-12T04:13:12.315Z,94403.53
2023-11-12T04:15:40.459Z,94394.28
2023-11-12T04:18:08.590Z,94389.88
2023-11-12T04:20:36.842Z,94388.44
2023-11-12T04:23:06.176Z,94389.00
2023-11-12T04:25:34.414Z,94376.31
2023-11-12T04:28:02.347Z,94375.97
2023-11-12T04:30:30.844Z,94385.56
2023-11-12T04:33:02.313Z,94378.16
2023-11-12T04:35:30.509Z,94375.34
2023-11-12T04:37:58.518Z,94373.91
2023-11-12T04:40:27.859Z,94377.56
2023-11-12T04:42:56.163Z,94375.28
2023-11-12T04:45:25.698Z,94365.31
2023-11-12T04:47:53.723Z,94364.03
2023-11-12T04:50:21.711Z,94369.28
2023-11-12T04:52:49.748Z,94360.59
2023-11-12T04:55:17.821Z,94366.97
2023-11-12T04:57:47.287Z,94368.06
2023-11-12T05:00:16.348Z,94369.66
2023-11-12T05:02:46.161Z,94368.50
2023-11-12T05:05:14.602Z,94375.66
2023-11-12T05:07:42.629Z,94371.06
2023-11-12T05:10:12.482Z,94373.44
2023-11-12T05:12:40.835Z,94366.00
2023-11-12T05:15:11.501Z,94369.78
2023-11-12T05:17:39.560Z,94365.16
2023-11-12T05:20:09.297Z,94363.00
2023-11-12T05:22:38.263Z,94358.81
2023-11-12T05:25:07.850Z,94349.81
2023-11-12T05:27:37.573Z,94351.84
2023-11-12T05:30:06.559Z,94340.66
2023-11-12T05:32:36.193Z,94339.66
2023-11-12T05:35:04.365Z,94338.41
2023-11-12T05:37:32.464Z,94341.44
2023-11-12T05:40:00.369Z,94345.84
2023-11-12T05:42:28.407Z,94338.69
2023-11-12T05:44:56.341Z,94339.69
2023-11-12T05:47:25.009Z,94344.47
2023-11-12T05:49:54.357Z,94340.50
2023-11-12T05:52:22.293Z,94350.09
2023-11-12T05:54:50.424Z,94343.53
2023-11-12T05:57:18.460Z,94341.34
2023-11-12T05:59:48.496Z,94344.72
2023-11-12T06:02:16.438Z,94342.13
2023-11-12T06:04:44.383Z,94348.34
2023-11-12T06:07:13.959Z,94339.75
2023-11-12T06:09:42.124Z,94348.56
2023-11-12T06:12:10.313Z,94352.16
2023-11-12T06:14:40.148Z,94344.16
2023-11-12T06:17:08.092Z,94342.34
2023-11-12T06:19:37.414Z,94348.56
2023-11-12T06:22:05.835Z,94344.16
2023-11-12T06:24:35.207Z,94340.94
2023-11-12T06:27:03.249Z,94350.31
2023-11-12T06:29:31.179Z,94355.28
2023-11-12T06:31:59.168Z,94350.50
2023-11-12T06:34:27.146Z,94361.88
2023-11-12T06:36:55.293Z,94370.84
2023-11-12T06:39:23.203Z,94363.72
2023-11-12T06:41:52.457Z,94371.28
2023-11-12T06:44:21.077Z,94375.03
2023-11-12T06:46:49.067Z,94377.94
2023-11-12T06:49:17.040Z,94382.13
2023-11-12T06:51:45.164Z,94388.31
2023-11-12T06:54:13.806Z,94385.16
2023-11-12T06:56:41.878Z,94384.69
2023-11-12T06:59:11.233Z,94388.09
2023-11-12T07:01:40.189Z,94387.53
2023-11-12T07:04:08.596Z,94386.00
2023-11-12T07:06:36.636Z,94387.44
2023-11-12T07:09:05.303Z,94394.00
2023-11-12T07:11:33.357Z,94400.16
2023-11-12T07:14:01.654Z,94402.94
2023-11-12T07:16:31.049Z,94404.44
2023-11-12T07:18:59.231Z,94405.59
2023-11-12T07:21:28.904Z,94405.97
2023-11-12T07:23:57.551Z,94418.75
2023-11-12T07:26:26.384Z,94413.41
2023-11-12T07:28:54.587Z,94414.00
2023-11-12T07:31:25.340Z,94416.09
2023-11-12T07:33:55.057Z,94412.75
2023-11-12T07:36:23.356Z,94406.44
2023-11-12T07:38:51.958Z,94412.03
2023-11-12T07:41:21.114Z,94417.44
2023-11-12T07:43:49.170Z,94410.41
2023-11-12T07:46:17.420Z,94403.19
2023-11-12T07:48:45.651Z,94402.97
2023-11-12T07:51:15.047Z,94406.16
2023-11-12T07:53:45.715Z,94404.63
2023-11-12T07:56:13.859Z,94400.75
2023-11-12T07:58:43.838Z,94411.91
2023-11-12T08:01:16.811Z,94419.13
2023-11-12T08:03:44.789Z,94413.06
2023-11-12T08:06:12.986Z,94414.09
2023-11-12T08:08:43.969Z,94418.19
2023-11-12T08:11:11.911Z,94414.44
2023-11-12T08:13:40.208Z,94418.50
2023-11-12T08:16:09.239Z,94414.56
2023-11-12T08:18:37.413Z,94411.38
2023-11-12T08:21:07.016Z,94409.31
2023-11-12T08:23:35.018Z,94413.53
2023-11-12T08:26:05.984Z,94422.72
2023-11-12T08:28:34.242Z,94428.16
2023-11-12T08:31:02.184Z,94438.16
2023-11-12T08:33:30.212Z,94431.66
2023-11-12T08:35:58.222Z,94439.88
2023-11-12T08:38:26.207Z,94432.56
2023-11-12T08:40:55.141Z,94435.53
2023-11-12T08:43:25.435Z,94429.19
2023-11-12T08:45:53.512Z,94436.22
2023-11-12T08:48:21.721Z,94425.31
2023-11-12T08:50:52.043Z,94425.00
2023-11-12T08:53:20.041Z,94436.00
2023-11-12T08:55:47.930Z,94435.38
2023-11-12T08:58:15.928Z,94436.34
2023-11-12T09:00:45.258Z,94431.69
2023-11-12T09:03:13.206Z,94430.38
2023-11-12T09:05:41.382Z,94438.00
2023-11-12T09:08:09.361Z,94439.66
2023-11-12T09:10:37.369Z,94443.06
2023-11-12T09:13:05.474Z,94443.25
2023-11-12T09:15:34.120Z,94447.44
2023-11-12T09:18:03.462Z,94455.25
2023-11-12T09:20:31.452Z,94465.28
2023-11-12T09:22:59.476Z,94467.72
2023-11-12T09:25:28.194Z,94463.22
2023-11-12T09:27:56.973Z,94457.94
2023-11-12T09:30:25.306Z,94460.34
2023-11-12T09:32:53.551Z,94469.63
2023-11-12T09:35:22.925Z,94472.00
2023-11-12T09:37:51.792Z,94475.19
2023-11-12T09:40:21.506Z,94470.41
2023-11-12T09:42:54.462Z,94474.78
2023-11-12T09:45:22.892Z,94475.53
2023-11-12T09:48:04.608Z,94481.28
2023-11-12T09:50:35.319Z,94485.31
2023-11-12T09:53:04.486Z,94486.84
2023-11-12T09:55:32.841Z,94488.22
2023-11-12T09:58:02.679Z,94492.66
2023-11-12T10:00:36.126Z,94493.34
2023-11-12T10:03:09.594Z,94497.88
2023-11-12T10:05:40.693Z,94487.09
2023-11-12T10:08:08.792Z,94489.09
2023-11-12T10:10:37.933Z,94487.16
2023-11-12T10:13:06.409Z,94475.94
2023-11-12T10:15:36.006Z,94480.50
2023-11-12T10:18:05.402Z,94480.41
2023-11-12T10:20:42.098Z,94475.88
2023-11-12T10:23:32.950Z,94483.13
2023-11-12T10:26:03.542Z,94500.56
2023-11-12T10:28:36.059Z,94502.53
2023-11-12T10:31:04.301Z,94512.97
2023-11-12T10:33:32.618Z,94508.69
2023-11-12T10:36:09.128Z,94510.28
2023-11-12T10:38:49.455Z,94503.59
2023-11-12T10:41:18.002Z,94505.03
2023-11-12T10:43:59.509Z,94506.25
2023-11-12T10:46:27.841Z,94495.22
2023-11-12T10:48:58.359Z,94494.97
2023-11-12T10:51:28.156Z,94491.75
2023-11-12T10:54:00.441Z,94485.91
2023-11-12T10:56:29.589Z,94490.56
2023-11-12T10:58:58.963Z,94491.56
2023-11-12T11:01:27.518Z,94495.34
2023-11-12T11:03:55.987Z,94494.41
2023-11-12T11:06:28.141Z,94495.19
2023-11-12T11:08:58.081Z,94499.13
2023-11-12T11:11:27.343Z,94503.66
2023-11-12T11:13:55.354Z,94500.09
2023-11-12T11:16:47.368Z,94491.59
2023-11-12T11:19:15.602Z,94490.56
2023-11-12T11:21:43.812Z,94492.97
2023-11-12T11:24:46.005Z,94501.53
2023-11-12T11:27:14.466Z,94497.00
2023-11-12T11:30:10.968Z,94489.06
2023-11-12T11:32:39.383Z,94500.03
2023-11-12T11:35:19.460Z,94501.38
2023-11-12T11:38:10.185Z,94499.81
2023-11-12T11:40:43.553Z,94501.38
2023-11-12T11:43:33.239Z,94504.50
2023-11-12T11:46:12.890Z,94500.22
2023-11-12T11:49:14.368Z,94501.25
2023-11-12T11:51:47.209Z,94499.97
2023-11-12T11:54:18.445Z,94507.28
2023-11-12T11:56:48.052Z,94503.31
2023-11-12T11:59:16.803Z,94503.00
2023-11-12T12:01:47.721Z,94502.13
2023-11-12T12:04:16.579Z,94494.38
2023-11-12T12:06:46.246Z,94501.03
2023-11-12T12:09:18.396Z,94497.63
2023-11-12T12:11:54.697Z,94499.38
2023-11-12T12:14:25.531Z,94507.47
2023-11-12T12:16:55.663Z,94502.84
2023-11-12T12:19:24.786Z,94511.38
2023-11-12T12:21:56.795Z,94505.34
2023-11-12T12:24:25.091Z,94514.56
2023-11-12T12:26:58.104Z,94521.50
2023-11-12T12:29:27.015Z,94515.22
2023-11-12T12:31:59.138Z,94514.97
2023-11-12T12:34:27.581Z,94517.00
2023-11-12T12:37:06.631Z,94515.19
2023-11-12T12:39:55.852Z,94522.06
2023-11-12T12:42:28.750Z,94514.59
2023-11-12T12:44:58.456Z,94514.34
2023-11-12T12:47:31.650Z,94511.53
2023-11-12T12:50:00.521Z,94515.13
2023-11-12T12:52:28.846Z,94512.44
2023-11-12T12:54:57.594Z,94512.63
2023-11-12T12:57:27.477Z,94514.97
2023-11-12T12:59:56.225Z,94509.66
2023-11-12T13:02:24.248Z,94498.66
2023-11-12T13:04:53.963Z,94499.50
2023-11-12T13:07:25.919Z,94508.56
2023-11-12T13:09:58.326Z,94512.19
2023-11-12T13:12:32.011Z,94496.75
2023-11-12T13:14:59.995Z,94506.38
2023-11-12T13:17:28.060Z,94502.00
2023-11-12T13:19:55.979Z,94510.38
2023-11-12T13:22:24.142Z,94503.13
2023-11-12T13:24:52.165Z,94503.06
2023-11-12T13:27:20.289Z,94514.44
2023-11-12T13:29:49.598Z,94509.44
2023-11-12T13:32:19.521Z,94509.44
2023-11-12T13:34:47.450Z,94503.94
2023-11-12T13:37:16.814Z,94499.97
2023-11-12T13:39:44.887Z,94503.13
2023-11-12T13:42:12.962Z,94503.78
2023-11-12T13:44:40.962Z,94514.38
2023-11-12T13:47:10.489Z,94513.81
2023-11-12T13:49:38.807Z,94519.06
2023-11-12T13:52:07.437Z,94514.84
2023-11-12T13:54:36.424Z,94514.31
2023-11-12T13:57:04.825Z,94517.19
2023-11-12T13:59:32.802Z,94530.28
2023-11-12T14:02:03.788Z,94524.25
2023-11-12T14:04:33.286Z,94521.56
2023-11-12T14:07:01.587Z,94518.16
2023-11-12T14:09:33.693Z,94527.28
2023-11-12T14:12:02.099Z,94523.63
2023-11-12T14:14:30.051Z,94520.22
2023-11-12T14:17:00.683Z,94519.09
2023-11-12T14:19:28.934Z,94513.69
2023-11-12T14:21:58.310Z,94516.72
2023-11-12T14:24:26.789Z,94520.44
2023-11-12T14:26:55.065Z,94524.91
2023-11-12T14:29:22.987Z,94521.97
2023-11-12T14:31:51.858Z,94517.34
2023-11-12T14:34:19.878Z,94526.34
2023-11-12T14:36:47.892Z,94528.66
2023-11-12T14:39:19.436Z,94528.13
2023-11-12T14:41:47.552Z,94526.34
2023-11-12T14:44:15.530Z,94533.19
2023-11-12T14:46:44.897Z,94538.19
2023-11-12T14:49:12.956Z,94531.72
2023-11-12T14:51:42.453Z,94533.97
2023-11-12T14:54:10.494Z,94543.59
2023-11-12T14:56:39.830Z,94540.34
2023-11-12T14:59:08.063Z,94544.75
2023-11-12T15:01:37.277Z,94546.75
2023-11-12T15:04:05.835Z,94547.19
2023-11-12T15:06:34.006Z,94540.88
2023-11-12T15:09:02.206Z,94534.84
2023-11-12T15:11:35.009Z,94541.34
2023-11-12T15:14:11.661Z,94536.56
2023-11-12T15:16:40.396Z,94538.31
2023-11-12T15:19:11.597Z,94541.06
2023-11-12T15:21:43.289Z,94534.59
2023-11-12T15:24:13.069Z,94528.59
2023-11-12T15:26:42.551Z,94535.25
2023-11-12T15:29:12.005Z,94534.69
2023-11-12T15:31:40.055Z,94529.03
2023-11-12T15:34:11.730Z,94530.53
2023-11-12T15:36:40.148Z,94525.28
2023-11-12T15:39:09.643Z,94530.28
2023-11-12T15:41:37.717Z,94526.63
2023-11-12T15:44:08.475Z,94534.09
2023-11-12T15:46:40.097Z,94533.66
2023-11-12T15:49:09.247Z,94532.16
2023-11-12T15:51:37.281Z,94528.22
2023-11-12T15:54:05.861Z,94523.75
2023-11-12T15:56:33.773Z,94526.25
2023-11-12T15:59:01.978Z,94528.63
2023-11-12T16:01:30.372Z,94530.13
2023-11-12T16:03:59.964Z,94538.19
2023-11-12T16:06:31.265Z,94537.19
2023-11-12T16:08:59.350Z,94539.44
2023-11-12T16:11:29.856Z,94538.31
2023-11-12T16:13:59.065Z,94535.25
2023-11-12T16:16:27.343Z,94543.88
2023-11-12T16:18:55.681Z,94546.16
2023-11-12T16:21:25.070Z,94554.53
2023-11-12T16:23:53.486Z,94551.84
2023-11-12T16:26:21.483Z,94552.47
2023-11-12T16:28:49.410Z,94553.56
2023-11-12T16:31:17.489Z,94552.78
2023-11-12T16:33:45.550Z,94563.59
2023-11-12T16:36:13.902Z,94566.41
2023-11-12T16:38:43.237Z,94557.78
2023-11-12T16:41:11.151Z,94562.94
2023-11-12T16:43:39.268Z,94566.19
2023-11-12T16:46:07.295Z,94570.03
2023-11-12T16:48:35.472Z,94566.69
2023-11-12T16:51:04.545Z,94578.38
2023-11-12T16:53:32.562Z,94583.78
2023-11-12T16:56:02.781Z,94586.38
2023-11-12T16:58:30.828Z,94588.38
2023-11-12T17:00:58.941Z,94593.63
2023-11-12T17:03:27.521Z,94588.63
2023-11-12T17:05:58.905Z,94596.56
2023-11-12T17:08:27.551Z,94592.50
2023-11-12T17:10:55.451Z,94589.69
2023-11-12T17:13:25.123Z,94595.25
2023-11-12T17:15:53.355Z,94603.16
2023-11-12T17:18:21.349Z,94609.63
2023-11-12T17:20:50.032Z,94603.44
2023-11-12T17:23:18.993Z,94601.06
2023-11-12T17:28:17.787Z,94624.59
2023-11-12T17:30:47.092Z,94610.09
2023-11-12T17:33:15.016Z,94611.97
2023-11-12T17:35:43.662Z,94611.47
2023-11-12T17:38:11.566Z,94608.66
2023-11-12T17:40:41.141Z,94613.72
2023-11-12T17:43:09.836Z,94614.16
2023-11-12T17:45:38.042Z,94606.84
2023-11-12T17:48:07.817Z,94612.69
2023-11-12T17:50:36.076Z,94618.41
2023-11-12T17:53:04.030Z,94628.88
2023-11-12T17:55:32.094Z,94618.38
2023-11-12T17:58:00.738Z,94619.69
2023-11-12T18:00:28.724Z,94624.78
2023-11-12T18:02:56.705Z,94615.97
2023-11-12T18:05:26.426Z,94622.94
2023-11-12T18:07:54.425Z,94623.69
2023-11-12T18:10:22.528Z,94626.00
2023-11-12T18:12:50.663Z,94625.97
2023-11-12T18:15:20.535Z,94632.09
2023-11-12T18:17:48.593Z,94632.00
2023-11-12T18:20:18.691Z,94630.50
2023-11-12T18:22:48.098Z,94619.66
2023-11-12T18:25:16.658Z,94622.78
2023-11-12T18:27:44.869Z,94616.72
2023-11-12T18:30:13.948Z,94614.84
2023-11-12T18:32:42.411Z,94611.63
2023-11-12T18:35:11.080Z,94615.38
2023-11-12T18:37:41.785Z,94617.56
2023-11-12T18:40:16.823Z,94614.28
2023-11-12T18:42:45.194Z,94620.75
2023-11-12T18:45:16.855Z,94619.78
2023-11-12T18:47:45.151Z,94620.09
2023-11-12T18:50:13.667Z,94619.31
2023-11-12T18:52:42.584Z,94611.31
2023-11-12T18:55:15.099Z,94615.69
2023-11-12T18:57:43.529Z,94621.84
2023-11-12T19:00:13.084Z,94624.34
2023-11-12T19:02:42.347Z,94632.84
2023-11-12T19:05:10.551Z,94635.47
2023-11-12T19:07:39.143Z,94630.59
2023-11-12T19:10:11.223Z,94635.81
2023-11-12T19:12:41.948Z,94637.00
2023-11-12T19:15:11.490Z,94635.81
2023-11-12T19:17:44.216Z,94647.03
2023-11-12T19:20:13.834Z,94648.31
2023-11-12T19:22:42.571Z,94648.88
2023-11-12T19:25:13.674Z,94647.69
2023-11-12T19:27:43.735Z,94652.25
2023-11-12T19:30:15.431Z,94649.41
2023-11-12T19:32:45.670Z,94653.75
2023-11-12T19:35:17.025Z,94663.16
2023-11-12T19:37:45.580Z,94665.19
2023-11-12T19:40:17.924Z,94658.38
2023-11-12T19:42:49.980Z,94668.28
2023-11-12T19:45:20.396Z,94671.81
2023-11-12T19:47:52.660Z,94687.34
2023-11-12T19:50:22.412Z,94676.41
2023-11-12T19:52:50.963Z,94687.78
2023-11-12T19:55:20.563Z,94690.31
2023-11-12T19:57:53.595Z,94677.84
2023-11-12T20:00:22.597Z,94680.16
2023-11-12T20:02:51.363Z,94684.47
2023-11-12T20:05:19.999Z,94686.59
2023-11-12T20:07:48.020Z,94690.22
2023-11-12T20:10:18.110Z,94699.41
2023-11-12T20:12:46.388Z,94700.16
2023-11-12T20:15:15.885Z,94695.88
2023-11-12T20:17:44.372Z,94697.69
2023-11-12T20:20:13.639Z,94688.06
2023-11-12T20:22:42.519Z,94689.22
2023-11-12T20:25:10.963Z,94690.59
2023-11-12T20:27:41.082Z,94692.34
2023-11-12T20:30:11.226Z,94685.72
2023-11-12T20:32:44.169Z,94689.06
2023-11-12T20:35:12.149Z,94687.81
2023-11-12T20:37:40.155Z,94686.06
2023-11-12T20:40:10.488Z,94686.22
2023-11-12T20:42:40.251Z,94685.03
2023-11-12T20:45:11.692Z,94689.56
2023-11-12T20:47:41.973Z,94690.75
2023-11-12T20:50:12.633Z,94694.38
2023-11-12T20:52:40.702Z,94691.72
2023-11-12T20:55:09.151Z,94700.91
2023-11-12T20:57:37.401Z,94697.06
2023-11-12T21:00:07.409Z,94696.47
2023-11-12T21:02:36.296Z,94690.69
2023-11-12T21:05:05.675Z,94692.41
2023-11-12T21:07:34.957Z,94699.88
2023-11-12T21:10:03.398Z,94701.25
2023-11-12T21:12:31.365Z,94711.63
2023-11-12T21:14:59.664Z,94720.09
2023-11-12T21:17:27.626Z,94737.47
2023-11-12T21:19:55.555Z,94722.00
2023-11-12T21:22:24.797Z,94715.34
2023-11-12T21:24:55.026Z,94725.78
2023-11-12T21:27:23.130Z,94725.34
2023-11-12T21:29:51.303Z,94726.06
2023-11-12T21:32:20.496Z,94734.28
2023-11-12T21:34:48.685Z,94734.88
2023-11-12T21:37:18.296Z,94727.03
2023-11-12T21:39:46.489Z,94732.63
2023-11-12T21:42:15.920Z,94718.59
2023-11-12T21:44:44.166Z,94721.53
2023-11-12T21:47:12.077Z,94722.09
2023-11-12T21:49:40.937Z,94716.06
2023-11-12T21:52:09.423Z,94713.88
2023-11-12T21:54:37.497Z,94713.38
2023-11-12T21:57:07.167Z,94722.22
2023-11-12T21:59:36.578Z,94718.75
2023-11-12T22:02:05.734Z,94722.28
2023-11-12T22:04:33.766Z,94717.22
2023-11-12T22:07:02.684Z,94718.97
2023-11-12T22:09:30.696Z,94727.53
2023-11-12T22:11:58.781Z,94733.69
2023-11-12T22:14:26.687Z,94730.63
2023-11-12T22:16:57.558Z,94741.25
2023-11-12T22:19:26.183Z,94737.00
2023-11-12T22:21:54.249Z,94739.75
2023-11-12T22:24:22.327Z,94730.13
2023-11-12T22:26:51.665Z,94733.28
2023-11-12T22:29:19.765Z,94729.66
2023-11-12T22:31:48.060Z,94732.03
2023-11-12T22:34:17.429Z,94738.44
2023-11-12T22:36:45.988Z,94730.84
2023-11-12T22:39:13.994Z,94725.97
2023-11-12T22:41:42.052Z,94730.31
2023-11-12T22:44:11.403Z,94731.47
2023-11-12T22:46:39.385Z,94746.28
2023-11-12T22:49:07.478Z,94755.63
2023-11-12T22:51:37.170Z,94759.75
2023-11-12T22:54:05.960Z,94745.00
2023-11-12T22:56:34.057Z,94757.53
2023-11-12T22:59:02.102Z,94751.44
2023-11-12T23:01:30.159Z,94757.38
2023-11-12T23:03:58.254Z,94763.91
2023-11-12T23:06:26.728Z,94770.41
2023-11-12T23:08:58.187Z,94769.50
2023-11-12T23:11:29.778Z,94763.16
2023-11-12T23:13:57.743Z,94758.41
2023-11-12T23:16:28.568Z,94755.25
2023-11-12T23:18:56.577Z,94765.94
2023-11-12T23:21:24.601Z,94755.28
2023-11-12T23:23:52.614Z,94751.41
2023-11-12T23:26:21.950Z,94760.19
2023-11-12T23:28:50.307Z,94760.63
2023-11-12T23:31:23.163Z,94764.88
2023-11-12T23:33:51.367Z,94767.13
2023-11-12T23:36:22.447Z,94765.19
2023-11-12T23:38:50.516Z,94767.81
2023-11-12T23:41:19.296Z,94768.13
2023-11-12T23:43:48.620Z,94767.69
2023-11-12T23:46:17.132Z,94778.94
2023-11-12T23:48:45.111Z,94778.28
2023-11-12T23:51:13.725Z,94776.31
2023-11-12T23:53:41.775Z,94771.09
2023-11-12T23:56:16.582Z,94774.19
2023-11-12T23:58:44.695Z,94771.44
